createdAt,value
2023-05-19T00:02:09.403Z,101187.97
2023-05-19T00:04:37.332Z,101192.16
2023-05-19T00:07:05.792Z,101188.09
2023-05-19T00:09:33.322Z,101190.03
2023-05-19T00:12:00.724Z,101184.91
2023-05-19T00:14:29.247Z,101181.66
2023-05-19T00:16:58.229Z,101175.38
2023-05-19T00:19:26.390Z,101180.22
2023-05-19T00:21:53.675Z,101180.38
2023-05-19T00:24:20.712Z,101175.06
2023-05-19T00:26:47.770Z,101174.28
2023-05-19T00:29:18.748Z,101167.50
2023-05-19T00:31:46.739Z,101162.81
2023-05-19T00:34:13.915Z,101159.91
2023-05-19T00:36:41.348Z,101172.63
2023-05-19T00:39:08.614Z,101167.25
2023-05-19T00:41:36.004Z,101159.69
2023-05-19T00:44:03.768Z,101160.31
2023-05-19T00:46:31.083Z,101164.19
2023-05-19T00:48:58.251Z,101157.41
2023-05-19T00:51:28.442Z,101156.59
2023-05-19T00:53:56.783Z,101159.34
2023-05-19T00:56:24.049Z,101155.78
2023-05-19T00:58:52.199Z,101150.16
2023-05-19T01:01:21.758Z,101148.03
2023-05-19T01:03:50.488Z,101151.41
2023-05-19T01:06:19.504Z,101149.31
2023-05-19T01:08:46.981Z,101152.38
2023-05-19T01:11:14.142Z,101148.81
2023-05-19T01:13:42.261Z,101145.59
2023-05-19T01:16:18.427Z,101148.00
2023-05-19T01:18:56.515Z,101139.31
2023-05-19T01:22:15.975Z,101147.53
2023-05-19T01:25:01.218Z,101136.06
2023-05-19T01:27:49.656Z,101144.47
2023-05-19T01:30:25.656Z,101146.72
2023-05-19T01:33:00.467Z,101144.00
2023-05-19T01:35:28.829Z,101138.81
2023-05-19T01:38:00.126Z,101139.44
2023-05-19T01:40:29.352Z,101139.78
2023-05-19T01:42:59.960Z,101136.53
2023-05-19T01:45:29.309Z,101134.44
2023-05-19T01:47:58.709Z,101137.97
2023-05-19T01:50:26.477Z,101149.25
2023-05-19T01:52:53.946Z,101139.44
2023-05-19T01:55:23.095Z,101144.09
2023-05-19T01:58:21.235Z,101133.13
2023-05-19T02:01:17.284Z,101135.41
2023-05-19T02:04:12.516Z,101138.66
2023-05-19T02:06:52.938Z,101131.09
2023-05-19T02:09:45.273Z,101136.75
2023-05-19T02:12:20.743Z,101132.38
2023-05-19T02:14:59.096Z,101131.28
2023-05-19T02:17:29.306Z,101125.00
2023-05-19T02:19:57.102Z,101122.09
2023-05-19T02:22:24.422Z,101115.47
2023-05-19T02:24:51.969Z,101107.59
2023-05-19T02:27:19.185Z,101113.41
2023-05-19T02:29:46.178Z,101117.28
2023-05-19T02:32:13.986Z,101106.47
2023-05-19T02:34:42.423Z,101111.47
2023-05-19T02:37:15.269Z,101108.09
2023-05-19T02:39:42.898Z,101111.97
2023-05-19T02:42:10.701Z,101118.47
2023-05-19T02:44:37.820Z,101103.66
2023-05-19T02:47:05.149Z,101106.88
2023-05-19T02:49:36.121Z,101106.41
2023-05-19T02:52:04.398Z,101110.25
2023-05-19T02:54:32.378Z,101103.84
2023-05-19T02:56:59.983Z,101104.31
2023-05-19T02:59:27.358Z,101100.63
2023-05-19T03:02:00.845Z,101097.22
2023-05-19T03:04:29.722Z,101083.03
2023-05-19T03:06:57.933Z,101077.06
2023-05-19T03:09:25.231Z,101087.84
2023-05-19T03:11:52.322Z,101091.72
2023-05-19T03:14:24.275Z,101095.25
2023-05-19T03:16:52.463Z,101092.22
2023-05-19T03:19:20.056Z,101091.06
2023-05-19T03:21:47.763Z,101100.59
2023-05-19T03:24:14.999Z,101100.09
2023-05-19T03:26:42.283Z,101091.06
2023-05-19T03:29:09.781Z,101092.84
2023-05-19T03:31:37.649Z,101087.69
2023-05-19T03:34:05.782Z,101086.56
2023-05-19T03:36:32.927Z,101088.16
2023-05-19T03:39:00.902Z,101086.38
2023-05-19T03:41:29.460Z,101093.00
2023-05-19T03:43:56.604Z,101084.91
2023-05-19T03:46:23.859Z,101089.75
2023-05-19T03:48:51.402Z,101084.72
2023-05-19T03:51:31.892Z,101093.72
2023-05-19T03:54:06.942Z,101093.38
2023-05-19T03:56:34.719Z,101099.84
2023-05-19T03:59:01.745Z,101105.69
2023-05-19T04:01:29.016Z,101110.53
2023-05-19T04:03:58.155Z,101111.19
2023-05-19T04:06:25.335Z,101110.03
2023-05-19T04:08:54.364Z,101110.84
2023-05-19T04:11:21.696Z,101118.09
2023-05-19T04:13:48.938Z,101120.03
2023-05-19T04:16:16.154Z,101119.84
2023-05-19T04:18:45.665Z,101124.41
2023-05-19T04:21:12.713Z,101136.00
2023-05-19T04:23:39.964Z,101131.47
2023-05-19T04:26:07.128Z,101126.59
2023-05-19T04:28:36.888Z,101140.94
2023-05-19T04:31:04.099Z,101148.03
2023-05-19T04:33:31.337Z,101160.00
2023-05-19T04:35:58.582Z,101170.00
2023-05-19T04:38:25.961Z,101172.22
2023-05-19T04:40:53.118Z,101177.56
2023-05-19T04:43:22.618Z,101184.00
2023-05-19T04:45:51.625Z,101189.50
2023-05-19T04:48:24.205Z,101195.94
2023-05-19T04:50:52.103Z,101203.38
2023-05-19T04:53:22.015Z,101207.22
2023-05-19T04:55:50.438Z,101215.75
2023-05-19T04:58:18.626Z,101212.66
2023-05-19T05:00:46.494Z,101197.25
2023-05-19T05:03:14.766Z,101192.41
2023-05-19T05:05:41.987Z,101204.31
2023-05-19T05:08:11.176Z,101207.19
2023-05-19T05:10:42.742Z,101222.75
2023-05-19T05:13:11.816Z,101222.97
2023-05-19T05:15:39.800Z,101216.59
2023-05-19T05:18:08.662Z,101211.72
2023-05-19T05:20:36.096Z,101228.25
2023-05-19T05:23:03.459Z,101245.63
2023-05-19T05:25:32.512Z,101245.00
2023-05-19T05:28:05.362Z,101242.66
2023-05-19T05:30:35.285Z,101229.19
2023-05-19T05:33:03.841Z,101235.50
2023-05-19T05:35:37.669Z,101255.56
2023-05-19T05:38:06.895Z,101258.53
2023-05-19T05:40:34.961Z,101248.16
2023-05-19T05:43:03.752Z,101246.56
2023-05-19T05:45:34.867Z,101236.38
2023-05-19T05:48:02.573Z,101233.28
2023-05-19T05:50:31.529Z,101242.13
2023-05-19T05:53:01.618Z,101246.41
2023-05-19T05:55:29.371Z,101250.22
2023-05-19T05:57:57.138Z,101238.16
2023-05-19T06:00:25.183Z,101244.47
2023-05-19T06:02:53.500Z,101253.00
2023-05-19T06:05:21.052Z,101241.03
2023-05-19T06:07:49.204Z,101244.41
2023-05-19T06:10:21.658Z,101233.06
2023-05-19T06:12:50.019Z,101231.00
2023-05-19T06:15:17.345Z,101229.25
2023-05-19T06:18:01.827Z,101224.28
2023-05-19T06:20:29.649Z,101232.28
2023-05-19T06:22:57.453Z,101219.56
2023-05-19T06:25:27.028Z,101221.28
2023-05-19T06:27:54.720Z,101201.69
2023-05-19T06:30:23.406Z,101215.19
2023-05-19T06:33:03.754Z,101208.69
2023-05-19T06:35:31.767Z,101205.78
2023-05-19T06:37:58.937Z,101188.59
2023-05-19T06:40:26.214Z,101205.41
2023-05-19T06:42:54.334Z,101205.78
2023-05-19T06:45:29.366Z,101208.81
2023-05-19T06:47:58.778Z,101213.94
2023-05-19T06:50:26.132Z,101218.84
2023-05-19T06:52:55.164Z,101215.38
2023-05-19T06:55:22.280Z,101214.44
2023-05-19T06:57:50.097Z,101214.69
2023-05-19T07:00:20.589Z,101220.16
2023-05-19T07:02:52.188Z,101209.88
2023-05-19T07:05:19.975Z,101207.81
2023-05-19T07:07:51.667Z,101212.41
2023-05-19T07:10:23.121Z,101204.22
2023-05-19T07:12:51.259Z,101198.56
2023-05-19T07:15:20.591Z,101208.41
2023-05-19T07:17:48.472Z,101218.50
2023-05-19T07:20:16.053Z,101215.22
2023-05-19T07:22:43.245Z,101209.84
2023-05-19T07:25:10.759Z,101207.97
2023-05-19T07:27:39.352Z,101214.97
2023-05-19T07:30:07.273Z,101205.25
2023-05-19T07:32:34.522Z,101216.00
2023-05-19T07:35:01.675Z,101213.31
2023-05-19T07:37:28.861Z,101196.34
2023-05-19T07:39:56.036Z,101201.97
2023-05-19T07:42:23.066Z,101200.53
2023-05-19T07:44:50.189Z,101210.41
2023-05-19T07:47:18.639Z,101215.50
2023-05-19T07:49:46.294Z,101203.69
2023-05-19T07:52:13.330Z,101213.59
2023-05-19T07:54:40.462Z,101215.63
2023-05-19T07:57:07.625Z,101214.50
2023-05-19T07:59:34.673Z,101210.59
2023-05-19T08:02:01.874Z,101195.19
2023-05-19T08:04:29.203Z,101204.28
2023-05-19T08:06:56.418Z,101206.31
2023-05-19T08:09:23.447Z,101208.25
2023-05-19T08:11:50.652Z,101207.69
2023-05-19T08:14:17.824Z,101195.88
2023-05-19T08:16:46.282Z,101183.69
2023-05-19T08:19:13.496Z,101178.66
2023-05-19T08:21:42.548Z,101181.13
2023-05-19T08:24:09.687Z,101183.09
2023-05-19T08:26:37.998Z,101183.78
2023-05-19T08:29:05.515Z,101181.47
2023-05-19T08:31:32.842Z,101178.91
2023-05-19T08:34:00.029Z,101189.25
2023-05-19T08:36:27.858Z,101197.38
2023-05-19T08:38:54.887Z,101194.34
2023-05-19T08:41:23.426Z,101196.19
2023-05-19T08:43:50.940Z,101193.25
2023-05-19T08:46:18.561Z,101202.47
2023-05-19T08:48:48.738Z,101193.88
2023-05-19T08:51:38.631Z,101193.66
2023-05-19T08:54:16.331Z,101197.22
2023-05-19T08:56:45.010Z,101194.44
2023-05-19T08:59:16.301Z,101185.34
2023-05-19T09:01:46.408Z,101172.78
2023-05-19T09:04:14.653Z,101181.78
2023-05-19T09:06:42.542Z,101179.41
2023-05-19T09:09:10.008Z,101203.28
2023-05-19T09:11:37.884Z,101195.69
2023-05-19T09:14:05.821Z,101195.88
2023-05-19T09:16:34.165Z,101190.50
2023-05-19T09:19:01.781Z,101187.41
2023-05-19T09:21:33.399Z,101191.41
2023-05-19T09:24:08.450Z,101197.53
2023-05-19T09:26:43.151Z,101190.53
2023-05-19T09:29:17.346Z,101203.94
2023-05-19T09:31:50.474Z,101209.69
2023-05-19T09:34:18.110Z,101205.91
2023-05-19T09:36:49.565Z,101199.22
2023-05-19T09:39:18.013Z,101208.88
2023-05-19T09:41:46.181Z,101212.75
2023-05-19T09:44:23.819Z,101213.84
2023-05-19T09:46:52.978Z,101215.06
2023-05-19T09:49:21.974Z,101204.44
2023-05-19T09:51:57.978Z,101183.06
2023-05-19T09:54:28.704Z,101171.00
2023-05-19T09:57:01.107Z,101168.44
2023-05-19T09:59:32.383Z,101177.06
2023-05-19T10:02:01.758Z,101165.00
2023-05-19T10:04:30.138Z,101146.28
2023-05-19T10:07:05.998Z,101142.50
2023-05-19T10:09:36.852Z,101159.72
2023-05-19T10:12:05.886Z,101161.28
2023-05-19T10:14:33.024Z,101176.28
2023-05-19T10:17:00.490Z,101174.09
2023-05-19T10:19:29.413Z,101174.88
2023-05-19T10:21:57.298Z,101170.44
2023-05-19T10:24:24.471Z,101166.72
2023-05-19T10:27:08.658Z,101171.16
2023-05-19T10:29:39.994Z,101183.47
2023-05-19T10:32:25.047Z,101216.41
2023-05-19T10:35:02.713Z,101232.53
2023-05-19T10:37:52.661Z,101243.50
2023-05-19T10:40:39.385Z,101249.53
2023-05-19T10:43:39.909Z,101253.94
2023-05-19T10:46:07.203Z,101238.13
2023-05-19T10:48:36.474Z,101224.91
2023-05-19T10:51:04.860Z,101205.97
2023-05-19T10:53:33.313Z,101196.69
2023-05-19T10:56:07.008Z,101197.72
2023-05-19T10:58:46.053Z,101195.88
2023-05-19T11:01:15.384Z,101192.38
2023-05-19T11:03:57.519Z,101182.59
2023-05-19T11:06:28.778Z,101192.34
2023-05-19T11:09:16.676Z,101186.41
2023-05-19T11:11:54.676Z,101204.06
2023-05-19T11:14:24.129Z,101212.81
2023-05-19T11:16:53.704Z,101213.31
2023-05-19T11:19:27.481Z,101204.78
2023-05-19T11:21:56.065Z,101213.53
2023-05-19T11:24:50.715Z,101192.94
2023-05-19T11:27:37.648Z,101198.50
2023-05-19T11:30:15.168Z,101183.94
2023-05-19T11:32:43.108Z,101178.78
2023-05-19T11:35:11.297Z,101182.31
2023-05-19T11:37:40.543Z,101183.00
2023-05-19T11:40:09.300Z,101181.13
2023-05-19T11:42:37.343Z,101162.03
2023-05-19T11:45:05.356Z,101158.59
2023-05-19T11:47:45.966Z,101162.63
2023-05-19T11:50:20.865Z,101158.84
2023-05-19T11:52:48.488Z,101147.69
2023-05-19T11:55:16.872Z,101155.28
2023-05-19T11:58:05.778Z,101156.66
2023-05-19T12:00:40.172Z,101149.81
2023-05-19T12:03:08.331Z,101145.03
2023-05-19T12:05:45.077Z,101133.72
2023-05-19T12:08:13.035Z,101134.94
2023-05-19T12:10:41.086Z,101127.25
2023-05-19T12:13:09.928Z,101137.09
2023-05-19T12:15:39.249Z,101134.78
2023-05-19T12:18:06.777Z,101132.63
2023-05-19T12:20:36.332Z,101130.97
2023-05-19T12:23:04.254Z,101123.47
2023-05-19T12:25:32.330Z,101128.44
2023-05-19T12:28:03.302Z,101122.25
2023-05-19T12:30:32.608Z,101116.81
2023-05-19T12:33:02.228Z,101104.31
2023-05-19T12:35:33.412Z,101115.00
2023-05-19T12:38:09.879Z,101116.13
2023-05-19T12:40:41.129Z,101108.09
2023-05-19T12:43:09.910Z,101094.22
2023-05-19T12:45:37.551Z,101095.28
2023-05-19T12:48:06.920Z,101093.69
2023-05-19T12:50:34.851Z,101088.84
2023-05-19T12:53:02.401Z,101092.53
2023-05-19T12:55:30.444Z,101093.34
2023-05-19T12:57:58.544Z,101108.00
2023-05-19T13:00:28.713Z,101102.84
2023-05-19T13:03:02.399Z,101099.72
2023-05-19T13:05:34.641Z,101100.53
2023-05-19T13:08:13.320Z,101092.19
2023-05-19T13:10:42.114Z,101089.97
2023-05-19T13:13:10.488Z,101103.09
2023-05-19T13:15:40.626Z,101077.94
2023-05-19T13:18:09.980Z,101066.47
2023-05-19T13:20:38.629Z,101073.91
2023-05-19T13:23:06.178Z,101084.69
2023-05-19T13:25:34.481Z,101070.38
2023-05-19T13:28:06.057Z,101067.03
2023-05-19T13:30:35.028Z,101068.50
2023-05-19T13:33:03.059Z,101070.25
2023-05-19T13:35:31.540Z,101073.91
2023-05-19T13:37:58.824Z,101075.25
2023-05-19T13:40:28.365Z,101075.91
2023-05-19T13:42:55.800Z,101053.16
2023-05-19T13:45:22.923Z,101044.28
2023-05-19T13:47:50.313Z,101043.00
2023-05-19T13:50:17.429Z,101040.38
2023-05-19T13:52:45.184Z,101037.03
2023-05-19T13:55:12.258Z,101047.81
2023-05-19T13:57:40.052Z,101041.94
2023-05-19T14:00:10.337Z,101044.97
2023-05-19T14:02:40.990Z,101051.00
2023-05-19T14:05:08.787Z,101059.19
2023-05-19T14:07:36.115Z,101045.81
2023-05-19T14:10:05.727Z,101037.75
2023-05-19T14:12:47.052Z,101035.03
2023-05-19T14:15:20.276Z,101051.59
2023-05-19T14:17:49.272Z,101034.00
2023-05-19T14:20:16.550Z,101033.69
2023-05-19T14:22:43.670Z,101040.09
2023-05-19T14:25:11.244Z,101013.91
2023-05-19T14:27:40.402Z,101016.53
2023-05-19T14:30:08.609Z,101015.47
2023-05-19T14:32:36.189Z,101017.53
2023-05-19T14:35:03.817Z,101003.28
2023-05-19T14:37:32.283Z,101000.78
2023-05-19T14:40:00.158Z,100998.03
2023-05-19T14:42:27.267Z,101003.25
2023-05-19T14:44:54.478Z,100998.09
2023-05-19T14:47:22.916Z,100993.38
2023-05-19T14:49:50.275Z,100980.34
2023-05-19T14:52:18.819Z,100975.25
2023-05-19T14:54:46.191Z,100978.44
2023-05-19T14:57:13.443Z,100974.44
2023-05-19T14:59:40.864Z,100962.69
2023-05-19T15:02:07.893Z,100953.06
2023-05-19T15:04:35.080Z,100927.53
2023-05-19T15:09:32.186Z,100928.00
2023-05-19T15:12:01.433Z,100911.47
2023-05-19T15:14:30.604Z,100919.56
2023-05-19T15:16:59.178Z,100909.84
2023-05-19T15:19:26.890Z,100899.41
2023-05-19T15:21:54.459Z,100895.69
2023-05-19T15:24:21.959Z,100892.41
2023-05-19T15:26:49.186Z,100881.97
2023-05-19T15:29:16.489Z,100864.88
2023-05-19T15:31:43.734Z,100867.66
2023-05-19T15:34:10.975Z,100874.44
2023-05-19T15:36:38.188Z,100884.91
2023-05-19T15:39:06.665Z,100874.38
2023-05-19T15:41:33.932Z,100883.78
2023-05-19T15:44:02.371Z,100882.41
2023-05-19T15:46:30.344Z,100870.50
2023-05-19T15:48:57.477Z,100885.06
2023-05-19T15:51:24.904Z,100848.13
2023-05-19T15:53:52.924Z,100843.28
2023-05-19T15:56:20.149Z,100840.44
2023-05-19T15:58:47.754Z,100840.53
2023-05-19T16:01:16.458Z,100844.19
2023-05-19T16:03:44.093Z,100851.56
2023-05-19T16:06:11.367Z,100846.03
2023-05-19T16:08:38.546Z,100849.88
2023-05-19T16:11:06.193Z,100852.09
2023-05-19T16:13:34.115Z,100849.88
2023-05-19T16:16:01.796Z,100837.63
2023-05-19T16:18:29.529Z,100837.47
2023-05-19T16:20:56.978Z,100839.09
2023-05-19T16:23:25.181Z,100810.19
2023-05-19T16:25:53.280Z,100796.69
2023-05-19T16:28:22.450Z,100805.81
2023-05-19T16:30:51.080Z,100863.16
2023-05-19T16:33:18.263Z,100917.75
2023-05-19T16:35:45.307Z,100902.50
2023-05-19T16:38:12.573Z,100897.91
2023-05-19T16:40:39.779Z,100894.59
2023-05-19T16:43:06.962Z,100903.88
2023-05-19T16:45:34.094Z,100890.91
2023-05-19T16:48:01.426Z,100879.13
2023-05-19T16:50:28.688Z,100891.16
2023-05-19T16:52:55.869Z,100890.13
2023-05-19T16:55:23.027Z,100869.16
2023-05-19T16:57:50.202Z,100864.34
2023-05-19T17:00:17.463Z,100855.50
2023-05-19T17:02:44.639Z,100844.38
2023-05-19T17:05:11.868Z,100823.75
2023-05-19T17:07:38.904Z,100814.22
2023-05-19T17:10:07.849Z,100810.09
2023-05-19T17:12:35.022Z,100812.31
2023-05-19T17:15:02.186Z,100811.03
2023-05-19T17:17:29.497Z,100814.25
2023-05-19T17:19:56.914Z,100819.50
2023-05-19T17:22:24.022Z,100810.56
2023-05-19T17:24:51.179Z,100818.03
2023-05-19T17:27:18.568Z,100808.97
2023-05-19T17:29:45.908Z,100806.66
2023-05-19T17:32:14.835Z,100805.19
2023-05-19T17:34:42.064Z,100801.16
2023-05-19T17:37:09.187Z,100805.66
2023-05-19T17:39:36.537Z,100802.44
2023-05-19T17:42:03.779Z,100787.31
2023-05-19T17:44:31.089Z,100766.78
2023-05-19T17:46:58.282Z,100751.34
2023-05-19T17:49:25.879Z,100769.09
2023-05-19T17:51:55.901Z,100777.56
2023-05-19T17:54:26.366Z,100772.06
2023-05-19T17:56:58.585Z,100783.75
2023-05-19T17:59:27.486Z,100775.06
2023-05-19T18:01:55.132Z,100767.03
2023-05-19T18:04:22.498Z,100768.41
2023-05-19T18:06:52.438Z,100752.59
2023-05-19T18:09:20.279Z,100759.59
2023-05-19T18:11:47.868Z,100757.97
2023-05-19T18:14:15.067Z,100763.34
2023-05-19T18:16:42.241Z,100755.44
2023-05-19T18:19:09.694Z,100764.47
2023-05-19T18:21:36.807Z,100765.28
2023-05-19T18:24:04.612Z,100752.69
2023-05-19T18:26:33.254Z,100744.78
2023-05-19T18:29:02.961Z,100765.06
2023-05-19T18:31:30.167Z,100776.72
2023-05-19T18:33:57.379Z,100800.31
2023-05-19T18:36:24.528Z,100798.25
2023-05-19T18:38:51.719Z,100806.84
2023-05-19T18:41:19.018Z,100802.03
2023-05-19T18:43:46.245Z,100807.53
2023-05-19T18:46:13.748Z,100786.69
2023-05-19T18:48:40.997Z,100796.66
2023-05-19T18:51:09.145Z,100803.72
2023-05-19T18:53:36.856Z,100806.75
2023-05-19T18:56:04.461Z,100821.97
2023-05-19T18:58:31.718Z,100822.78
2023-05-19T19:00:59.076Z,100819.91
2023-05-19T19:03:26.797Z,100821.84
2023-05-19T19:05:55.715Z,100816.69
2023-05-19T19:08:23.179Z,100826.28
2023-05-19T19:10:51.770Z,100817.78
2023-05-19T19:13:19.250Z,100822.84
2023-05-19T19:15:46.814Z,100815.28
2023-05-19T19:18:14.089Z,100813.34
2023-05-19T19:20:41.212Z,100799.34
2023-05-19T19:23:08.505Z,100787.38
2023-05-19T19:25:35.773Z,100783.81
2023-05-19T19:28:03.778Z,100774.53
2023-05-19T19:30:31.046Z,100748.34
2023-05-19T19:32:59.634Z,100738.59
2023-05-19T19:35:27.079Z,100753.03
2023-05-19T19:37:54.323Z,100750.28
2023-05-19T19:40:21.593Z,100746.72
2023-05-19T19:42:48.731Z,100755.59
2023-05-19T19:45:16.083Z,100757.75
2023-05-19T19:47:43.284Z,100739.53
2023-05-19T19:50:11.797Z,100741.97
2023-05-19T19:52:39.252Z,100751.34
2023-05-19T19:55:06.938Z,100771.72
2023-05-19T19:57:34.451Z,100750.53
2023-05-19T20:00:08.160Z,100716.28
2023-05-19T20:02:51.662Z,100657.63
2023-05-19T20:05:27.252Z,100607.34
2023-05-19T20:07:54.455Z,100652.13
2023-05-19T20:10:21.578Z,100677.66
2023-05-19T20:12:50.710Z,100694.97
2023-05-19T20:15:18.144Z,100692.22
2023-05-19T20:17:45.958Z,100669.88
2023-05-19T20:20:13.715Z,100709.28
2023-05-19T20:22:41.030Z,100713.19
2023-05-19T20:25:09.279Z,100684.66
2023-05-19T20:27:36.512Z,100701.84
2023-05-19T20:30:04.264Z,100699.78
2023-05-19T20:32:31.624Z,100712.28
2023-05-19T20:34:58.709Z,100711.47
2023-05-19T20:37:26.038Z,100737.72
2023-05-19T20:39:53.274Z,100733.81
2023-05-19T20:42:20.415Z,100731.66
2023-05-19T20:44:47.725Z,100741.69
2023-05-19T20:47:15.101Z,100714.53
2023-05-19T20:49:42.191Z,100713.16
2023-05-19T20:52:09.530Z,100705.63
2023-05-19T20:54:37.080Z,100703.09
2023-05-19T20:57:09.080Z,100680.44
2023-05-19T20:59:36.522Z,100666.31
2023-05-19T21:02:04.645Z,100679.06
2023-05-19T21:04:33.251Z,100672.88
2023-05-19T21:07:01.315Z,100672.50
2023-05-19T21:09:28.658Z,100677.13
2023-05-19T21:11:55.869Z,100693.06
2023-05-19T21:14:23.370Z,100688.25
2023-05-19T21:16:51.874Z,100674.72
2023-05-19T21:19:20.796Z,100652.28
2023-05-19T21:21:48.255Z,100652.72
2023-05-19T21:24:15.971Z,100645.28
2023-05-19T21:26:43.633Z,100641.84
2023-05-19T21:29:11.284Z,100635.91
2023-05-19T21:31:38.607Z,100662.69
2023-05-19T21:34:07.626Z,100641.84
2023-05-19T21:36:35.432Z,100633.16
2023-05-19T21:39:02.549Z,100639.34
2023-05-19T21:41:31.256Z,100624.53
2023-05-19T21:43:58.422Z,100635.53
2023-05-19T21:46:26.790Z,100631.19
2023-05-19T21:48:53.883Z,100621.22
2023-05-19T21:51:21.101Z,100625.59
2023-05-19T21:53:48.214Z,100614.91
2023-05-19T21:56:16.516Z,100607.47
2023-05-19T21:58:43.741Z,100571.06
2023-05-19T22:01:10.779Z,100568.66
2023-05-19T22:03:37.908Z,100562.25
2023-05-19T22:06:06.658Z,100564.63
2023-05-19T22:08:33.760Z,100535.56
2023-05-19T22:11:00.956Z,100533.94
2023-05-19T22:13:28.117Z,100560.63
2023-05-19T22:15:55.433Z,100539.09
2023-05-19T22:18:22.574Z,100512.91
2023-05-19T22:20:49.808Z,100505.09
2023-05-19T22:23:16.931Z,100522.13
2023-05-19T22:25:44.160Z,100531.28
2023-05-19T22:28:11.253Z,100533.34
2023-05-19T22:30:40.976Z,100529.78
2023-05-19T22:33:09.572Z,100540.09
2023-05-19T22:35:36.792Z,100531.94
2023-05-19T22:38:04.070Z,100554.72
2023-05-19T22:40:31.157Z,100576.94
2023-05-19T22:42:58.283Z,100568.91
2023-05-19T22:45:25.683Z,100549.66
2023-05-19T22:47:52.786Z,100588.50
2023-05-19T22:50:20.437Z,100639.59
2023-05-19T22:52:47.536Z,100626.41
2023-05-19T22:55:14.723Z,100577.44
2023-05-19T22:57:41.851Z,100567.47
2023-05-19T23:00:09.916Z,100530.22
2023-05-19T23:02:37.140Z,100507.78
2023-05-19T23:05:04.332Z,100521.53
2023-05-19T23:07:31.583Z,100572.53
2023-05-19T23:09:58.707Z,100546.50
2023-05-19T23:12:26.106Z,100550.38
2023-05-19T23:14:53.295Z,100586.84
2023-05-19T23:17:20.528Z,100592.78
2023-05-19T23:19:47.666Z,100573.31
2023-05-19T23:22:14.705Z,100588.19
2023-05-19T23:24:41.841Z,100605.38
2023-05-19T23:27:09.090Z,100634.94
2023-05-19T23:29:36.469Z,100597.44
2023-05-19T23:32:03.752Z,100575.88
2023-05-19T23:34:30.765Z,100579.41
2023-05-19T23:36:57.962Z,100579.88
2023-05-19T23:39:25.685Z,100541.91
2023-05-19T23:41:52.861Z,100545.81
2023-05-19T23:44:19.896Z,100552.47
2023-05-19T23:46:47.027Z,100541.34
2023-05-19T23:49:14.687Z,100552.81
2023-05-19T23:51:41.873Z,100564.72
2023-05-19T23:54:08.928Z,100572.50
2023-05-19T23:56:36.161Z,100562.84
2023-05-19T23:59:03.212Z,100549.81
